Time;durP1;ratioP1;P1;durP2;ratioP2;P2;SDS_P1;SDS_P2;PMS_P1;PMS_P2;Temp;Humidity;BMP_temperature;BMP_pressure;BME280_temperature;BME280_humidity;BME280_pressure;Samples;Min_cycle;Max_cycle;Signal;HPM_P1;HPM_P2
2022/08/11 00:00:58;;;;;;;3.65;2.30;;;;;;;25.39;33.90;100065.88;4107465;28;20245;-30
2022/08/11 00:03:04;;;;;;;4.13;2.25;;;;;;;25.62;33.61;100065.88;4106538;28;20238;-30
2022/08/11 00:05:15;;;;;;;4.25;2.33;;;;;;;25.44;33.37;100069.72;4109194;28;20317;-30
2022/08/11 00:07:18;;;;;;;3.83;2.00;;;;;;;25.96;33.23;100062.00;4108236;28;20757;-30
2022/08/11 00:09:30;;;;;;;2.50;2.15;;;;;;;26.07;33.06;100073.03;4108701;28;20253;-29
2022/08/11 00:11:38;;;;;;;4.00;2.33;;;;;;;25.47;33.81;100080.09;4109354;28;20230;-31
2022/08/11 00:13:46;;;;;;;3.72;2.10;;;;;;;25.21;34.01;100074.25;4110971;28;20277;-29
2022/08/11 00:15:49;;;;;;;2.33;2.08;;;;;;;25.21;33.80;100090.59;4111334;28;20226;-29
2022/08/11 00:18:01;;;;;;;4.53;2.35;;;;;;;25.56;33.52;100073.16;4112270;28;20480;-29
2022/08/11 00:20:09;;;;;;;5.85;2.33;;;;;;;25.34;33.71;100082.09;4107225;28;20231;-31
2022/08/11 00:22:21;;;;;;;2.20;2.00;;;;;;;25.39;33.38;100079.47;4110318;28;20738;-30
2022/08/11 00:24:24;;;;;;;4.93;2.33;;;;;;;25.55;33.25;100087.84;4107588;28;20696;-30
2022/08/11 00:26:27;;;;;;;3.45;2.17;;;;;;;25.11;33.85;100088.53;4111310;28;20613;-32
2022/08/11 00:28:30;;;;;;;5.32;2.20;;;;;;;25.26;33.87;100078.97;4109740;28;20235;-30
2022/08/11 00:30:38;;;;;;;5.78;2.28;;;;;;;25.91;32.81;100070.09;4109771;28;20234;-28
2022/08/11 00:32:43;;;;;;;2.45;1.90;;;;;;;25.76;33.21;100080.78;4111625;28;20664;-28
2022/08/11 00:34:46;;;;;;;3.78;2.42;;;;;;;25.54;33.72;100091.63;4111143;28;20664;-28
2022/08/11 00:36:54;;;;;;;2.95;2.13;;;;;;;25.22;33.89;100087.63;4109712;28;20340;-32
2022/08/11 00:39:04;;;;;;;2.47;1.77;;;;;;;25.91;33.11;100072.81;4110135;28;20242;-28
2022/08/11 00:41:16;;;;;;;4.45;2.20;;;;;;;25.62;33.62;100077.59;4108038;28;20242;-30
2022/08/11 00:43:26;;;;;;;3.85;2.00;;;;;;;25.42;33.91;100078.97;4111465;28;20654;-28
2022/08/11 00:45:38;;;;;;;2.85;2.08;;;;;;;25.39;33.52;100086.78;4110646;28;20231;-29
2022/08/11 00:47:56;;;;;;;3.72;2.15;;;;;;;24.37;35.23;100088.56;4111900;28;20261;-30
2022/08/11 00:50:33;;;;;;;3.65;2.30;;;;;;;25.41;33.80;100069.16;4111292;28;20680;-31
2022/08/11 00:52:57;;;;;;;3.60;2.13;;;;;;;25.32;34.26;100072.50;4099618;28;20234;-30
2022/08/11 00:55:37;;;;;;;2.75;2.40;;;;;;;25.10;34.67;100073.25;4108780;28;20238;-31
2022/08/11 00:57:54;;;;;;;4.18;2.50;;;;;;;25.18;34.31;100066.59;4109668;28;20234;-28
2022/08/11 01:00:04;;;;;;;4.60;2.30;;;;;;;24.71;35.18;100069.59;4106561;28;20238;-28
2022/08/11 01:02:45;;;;;;;3.63;2.38;;;;;;;24.94;35.30;100058.59;4111539;28;20238;-30
2022/08/11 01:05:06;;;;;;;4.57;2.22;;;;;;;24.86;34.77;100064.47;4095838;28;20586;-29
2022/08/11 01:07:33;;;;;;;8.60;2.75;;;;;;;24.61;35.04;100070.25;4097747;28;20613;-31
2022/08/11 01:10:34;;;;;;;3.03;2.60;;;;;;;24.57;35.38;100071.81;4104229;28;20778;-29
2022/08/11 01:12:42;;;;;;;2.85;2.53;;;;;;;23.62;36.42;100077.53;4109045;28;20239;-31
2022/08/11 01:14:58;;;;;;;3.88;2.72;;;;;;;24.00;36.22;100057.13;4109388;28;20246;-29
2022/08/11 01:17:28;;;;;;;4.43;2.50;;;;;;;24.14;36.24;100054.94;4103597;28;20251;-30
2022/08/11 01:19:45;;;;;;;3.77;2.43;;;;;;;23.22;37.23;100064.63;4094296;28;20235;-32
2022/08/11 01:22:39;;;;;;;2.87;2.50;;;;;;;23.58;36.91;100049.19;4107051;28;20309;-33
2022/08/11 01:24:40;;;;;;;3.60;2.50;;;;;;;23.15;37.43;100056.63;4107364;28;20246;-32
2022/08/11 01:27:06;;;;;;;5.07;2.77;;;;;;;23.57;36.90;100051.09;4108740;28;20903;-33
2022/08/11 01:29:44;;;;;;;3.20;2.23;;;;;;;23.35;37.24;100055.41;4108998;28;20701;-30
2022/08/11 01:32:24;;;;;;;4.07;2.30;;;;;;;23.79;36.74;100050.47;4110520;28;20605;-28
2022/08/11 01:34:26;;;;;;;3.80;2.90;;;;;;;23.45;36.95;100057.53;4109939;28;20303;-30
2022/08/11 01:36:59;;;;;;;7.23;2.70;;;;;;;23.72;36.91;100050.59;4110910;28;20252;-28
2022/08/11 01:39:07;;;;;;;3.37;2.80;;;;;;;23.70;36.76;100062.75;4107265;28;20530;-28
2022/08/11 01:46:31;;;;;;;4.27;2.57;;;;;;;23.63;37.00;100059.34;4099069;28;20234;-30
2022/08/11 01:48:39;;;;;;;3.53;2.50;;;;;;;23.52;36.99;100059.09;4107046;28;20269;-29
2022/08/11 01:50:50;;;;;;;5.00;2.73;;;;;;;23.28;37.29;100071.00;4110416;28;20292;-30
2022/08/11 01:53:29;;;;;;;5.10;2.40;;;;;;;23.54;37.15;100059.66;4109782;28;20234;-30
2022/08/11 01:55:48;;;;;;;5.23;2.60;;;;;;;23.43;37.16;100068.63;4105722;28;20621;-30
2022/08/11 01:58:01;;;;;;;4.17;2.53;;;;;;;23.23;37.58;100054.59;4109529;28;20831;-29
2022/08/11 02:00:16;;;;;;;3.40;3.10;;;;;;;22.92;37.52;100051.16;4108780;28;20265;-30
2022/08/11 02:03:05;;;;;;;4.80;2.77;;;;;;;22.57;38.32;100060.84;4108193;28;20230;-30
2022/08/11 02:05:05;;;;;;;3.13;2.47;;;;;;;23.06;37.68;100043.63;4095702;28;20741;-29
2022/08/11 02:07:29;;;;;;;6.07;2.70;;;;;;;23.09;37.39;100056.72;4108300;28;20293;-30
2022/08/11 02:09:42;;;;;;;3.83;2.67;;;;;;;22.90;37.86;100053.28;4108519;28;20238;-31
2022/08/11 02:11:58;;;;;;;4.57;2.90;;;;;;;22.47;38.48;100060.56;4107455;28;20321;-29
2022/08/11 02:14:21;;;;;;;4.03;2.67;;;;;;;22.59;38.41;100042.47;4107847;28;20515;-30
2022/08/11 02:16:57;;;;;;;2.97;2.60;;;;;;;22.53;38.30;100054.22;4107187;28;20229;-29
2022/08/11 02:24:36;;;;;;;3.57;3.00;;;;;;;22.71;37.86;100056.06;4108902;28;20237;-30
2022/08/11 02:26:46;;;;;;;3.27;2.83;;;;;;;22.55;38.25;100054.00;4106998;28;20312;-30
2022/08/11 02:29:02;;;;;;;3.97;2.87;;;;;;;22.70;38.15;100051.69;4108194;28;20238;-29
2022/08/11 02:34:27;;;;;;;3.30;2.67;;;;;;;22.44;38.52;100055.63;4107051;28;20326;-29
2022/08/11 02:36:44;;;;;;;3.20;2.90;;;;;;;22.15;38.95;100035.56;4105756;28;20219;-29
2022/08/11 02:39:04;;;;;;;4.60;2.90;;;;;;;21.29;40.37;100032.78;4109180;28;20465;-28
2022/08/11 02:44:01;;;;;;;4.13;2.60;;;;;;;20.22;42.20;100025.44;4108727;28;20273;-32
2022/08/11 02:46:28;;;;;;;3.40;3.10;;;;;;;19.89;42.83;99996.72;4106505;28;20461;-30
2022/08/11 02:51:34;;;;;;;5.23;3.07;;;;;;;20.80;40.91;99998.25;4105689;28;20755;-29
2022/08/11 02:53:38;;;;;;;4.17;2.57;;;;;;;20.94;40.90;100004.38;4106721;28;20249;-30
2022/08/11 02:55:44;;;;;;;5.33;2.77;;;;;;;20.95;40.92;100008.75;4109942;28;20230;-28
2022/08/11 02:58:13;;;;;;;3.73;2.83;;;;;;;21.49;40.05;100022.56;4108006;28;20707;-29
2022/08/11 03:00:17;;;;;;;5.53;3.10;;;;;;;21.60;39.94;100010.19;4107793;28;20250;-32
2022/08/11 03:02:30;;;;;;;3.83;2.60;;;;;;;21.71;39.79;100030.28;4109764;28;20652;-28
2022/08/11 03:05:03;;;;;;;4.30;2.80;;;;;;;21.52;39.99;100043.78;4106380;28;20230;-30
2022/08/11 03:07:18;;;;;;;4.73;2.90;;;;;;;21.68;39.61;100045.09;4104526;28;20297;-30
2022/08/11 03:09:36;;;;;;;3.73;2.40;;;;;;;21.64;39.77;100046.59;4108314;28;20603;-31
2022/08/11 03:17:23;;;;;;;5.97;3.17;;;;;;;21.65;39.81;100055.56;4108905;28;20222;-30
2022/08/11 03:19:36;;;;;;;4.40;2.23;;;;;;;20.99;40.71;100061.34;4109258;28;20696;-30
2022/08/11 03:21:44;;;;;;;3.17;2.47;;;;;;;21.46;39.82;100054.66;4106595;28;20668;-32
2022/08/11 03:24:15;;;;;;;3.57;2.43;;;;;;;21.42;39.93;100058.88;4103577;28;20245;-32
2022/08/11 03:26:41;;;;;;;3.73;2.50;;;;;;;21.47;39.88;100061.75;4106092;28;20226;-30
2022/08/11 03:28:53;;;;;;;3.60;2.43;;;;;;;21.87;39.14;100067.56;4106505;28;20532;-30
2022/08/11 03:31:09;;;;;;;3.57;2.70;;;;;;;21.47;39.57;100077.97;4107600;28;20273;-30
2022/08/11 03:35:49;;;;;;;4.57;2.77;;;;;;;22.29;38.54;100069.59;4107151;28;20269;-31
2022/08/11 03:38:01;;;;;;;7.57;2.70;;;;;;;21.77;39.49;100071.88;4106786;28;20242;-33
2022/08/11 03:43:06;;;;;;;3.80;2.73;;;;;;;22.42;38.50;100069.41;4106773;28;20753;-31
2022/08/11 03:45:27;;;;;;;2.53;2.33;;;;;;;22.03;39.03;100095.06;4109408;28;20238;-32
2022/08/11 03:47:34;;;;;;;3.60;2.77;;;;;;;22.08;38.84;100090.66;4111095;28;20720;-32
2022/08/11 03:50:01;;;;;;;3.60;2.30;;;;;;;21.96;39.02;100088.94;4112379;28;20234;-31
2022/08/11 03:52:32;;;;;;;3.33;2.40;;;;;;;22.14;38.69;100082.69;4110669;28;20293;-30
2022/08/11 03:54:49;;;;;;;7.07;2.90;;;;;;;21.43;40.05;100082.19;4107390;28;20653;-31
2022/08/11 03:57:10;;;;;;;4.87;2.80;;;;;;;21.36;40.08;100093.06;4113689;28;20289;-31
2022/08/11 03:59:32;;;;;;;5.77;2.57;;;;;;;21.86;39.51;100071.31;4111213;28;20586;-31
2022/08/11 04:02:18;;;;;;;6.23;2.43;;;;;;;21.90;39.19;100083.38;4103422;28;20230;-31
2022/08/11 04:04:39;;;;;;;3.17;2.87;;;;;;;21.13;40.19;100112.59;4104132;28;20297;-30
2022/08/11 04:06:48;;;;;;;4.27;2.60;;;;;;;21.22;40.28;100102.31;4108837;28;20238;-31
2022/08/11 04:09:27;;;;;;;7.30;2.77;;;;;;;21.66;39.74;100095.91;4111492;28;20767;-30
2022/08/11 04:12:00;;;;;;;7.03;3.20;;;;;;;20.69;40.98;100119.75;4111674;28;20707;-31
2022/08/11 04:17:24;;;;;;;3.40;2.50;;;;;;;21.71;39.56;100079.84;4110073;28;20230;-31
2022/08/11 04:19:54;;;;;;;4.27;2.40;;;;;;;21.62;39.86;100073.03;4108526;28;20222;-31
2022/08/11 04:22:14;;;;;;;4.90;2.50;;;;;;;21.00;40.69;100100.00;4101030;28;20456;-28
2022/08/11 04:24:37;;;;;;;6.80;2.83;;;;;;;20.94;40.59;100104.38;4109118;28;20281;-33
2022/08/11 04:26:40;;;;;;;4.63;2.60;;;;;;;20.78;40.83;100115.72;4109514;28;20238;-31
2022/08/11 04:28:55;;;;;;;2.80;2.43;;;;;;;21.27;40.38;100072.75;4111852;28;20301;-33
2022/08/11 04:31:22;;;;;;;7.90;2.90;;;;;;;21.42;40.15;100091.34;4108455;28;20231;-31
2022/08/11 04:34:20;;;;;;;6.43;2.67;;;;;;;21.16;40.52;100104.06;4111622;28;20234;-29
2022/08/11 04:39:27;;;;;;;6.37;2.57;;;;;;;21.57;39.75;100099.94;4107466;28;20659;-29
2022/08/11 04:44:42;;;;;;;4.97;2.50;;;;;;;21.48;40.30;100114.81;4088604;28;20231;-28
2022/08/11 05:01:39;;;;;;;5.73;2.83;;;;;;;21.19;40.49;100122.50;4109753;28;20286;-29
2022/08/11 05:03:05;;;;;;;5.60;3.03;;;;;;;21.01;41.44;100050.31;4177785;27;20337;-62
2022/08/11 05:05:31;;;;;;;3.67;2.80;;;;;;;21.09;41.12;100076.22;4159466;28;20304;-64
2022/08/11 05:07:51;;;;;;;5.77;2.90;;;;;;;20.86;41.12;100093.84;4167638;28;20235;-62
2022/08/11 05:10:10;;;;;;;3.80;2.47;;;;;;;20.88;41.56;100086.34;4176455;28;20223;-62
2022/08/11 05:36:42;;;;;;;4.07;2.93;;;;;;;22.31;39.72;100105.41;4133068;28;20855;-61
2022/08/11 05:58:13;;;;;;;3.43;2.70;;;;;;;22.25;39.99;100134.19;4143399;28;20234;-63
2022/08/11 06:00:15;;;;;;;3.90;3.00;;;;;;;22.33;40.08;100134.97;4168222;28;20239;-62
2022/08/11 06:02:17;;;;;;;4.80;2.67;;;;;;;22.51;39.83;100128.66;4175068;28;20232;-62
2022/08/11 06:04:23;;;;;;;6.17;2.83;;;;;;;22.46;40.01;100124.78;4177135;28;20286;-62
2022/08/11 06:06:26;;;;;;;5.87;2.30;;;;;;;22.48;39.95;100126.44;4178725;28;20282;-62
2022/08/11 06:08:31;;;;;;;5.30;2.90;;;;;;;22.17;40.57;100145.34;4172537;28;20274;-62
2022/08/11 06:10:35;;;;;;;5.63;2.90;;;;;;;22.40;40.62;100131.09;4175794;28;20235;-62
2022/08/11 06:12:39;;;;;;;5.27;2.90;;;;;;;22.61;40.12;100127.09;4171075;28;20252;-62
2022/08/11 06:14:43;;;;;;;6.47;2.90;;;;;;;22.12;40.68;100142.47;4168193;28;20236;-63
2022/08/11 06:16:52;;;;;;;7.87;3.00;;;;;;;21.80;41.28;100153.44;4170176;28;20237;-63
2022/08/11 06:18:54;;;;;;;3.20;2.90;;;;;;;22.23;40.72;100135.47;4166466;28;20235;-62
2022/08/11 06:20:57;;;;;;;4.57;2.77;;;;;;;22.44;40.66;100126.06;4166156;28;20318;-63
2022/08/11 06:23:05;;;;;;;3.77;2.90;;;;;;;22.37;40.86;100122.59;4164317;28;20782;-63
2022/08/11 06:25:08;;;;;;;5.00;2.87;;;;;;;22.38;40.80;100130.50;4168060;28;20233;-63
2022/08/11 06:27:19;;;;;;;7.17;3.37;;;;;;;22.22;41.03;100145.47;4164936;28;20294;-63
2022/08/11 06:29:23;;;;;;;7.10;2.60;;;;;;;22.50;40.45;100144.09;4169161;28;20552;-63
2022/08/11 06:31:57;;;;;;;5.17;3.03;;;;;;;23.20;40.18;100131.88;4163957;28;20262;-62
2022/08/11 06:34:14;;;;;;;4.83;3.00;;;;;;;22.62;40.33;100172.09;4167534;28;20231;-63
2022/08/11 06:36:34;;;;;;;8.23;2.83;;;;;;;22.87;40.59;100151.34;4166303;28;20755;-63
2022/08/11 06:38:55;;;;;;;4.57;2.63;;;;;;;23.04;40.29;100152.34;4164187;28;20680;-63
2022/08/11 06:43:24;;;;;;;6.30;3.00;;;;;;;22.89;40.76;100141.91;4164923;28;20282;-63
2022/08/11 06:45:32;;;;;;;4.03;2.67;;;;;;;23.43;39.67;100136.47;4166567;28;20295;-62
2022/08/11 06:47:34;;;;;;;5.15;2.55;;;;;;;23.07;39.71;100154.59;4163231;28;20285;-63
2022/08/11 06:52:12;;;;;;;10.20;3.07;;;;;;;23.78;39.19;100162.84;4166193;28;20254;-63
2022/08/11 06:54:40;;;;;;;4.07;2.60;;;;;;;24.19;38.97;100152.06;4161352;28;20260;-63
2022/08/11 07:02:41;;;;;;;5.03;2.92;;;;;;;24.23;39.13;100161.41;4179910;28;20249;-64
2022/08/11 07:04:52;;;;;;;6.22;2.80;;;;;;;24.54;38.44;100159.28;4159120;28;20319;-62
2022/08/11 07:17:20;;;;;;;4.10;2.75;;;;;;;24.86;38.00;100182.22;4164390;28;20258;-62
2022/08/11 07:29:16;;;;;;;5.40;2.92;;;;;;;24.89;37.99;100174.66;4169196;28;20240;-63
2022/08/11 07:31:31;;;;;;;6.07;3.08;;;;;;;24.53;38.07;100188.38;4163659;28;20236;-62
2022/08/11 07:33:44;;;;;;;12.20;2.90;;;;;;;24.94;37.61;100175.56;4161370;28;20905;-63
2022/08/11 07:36:11;;;;;;;4.65;3.58;;;;;;;23.90;38.66;100196.22;4165690;28;20272;-63
2022/08/11 07:38:21;;;;;;;4.68;2.63;;;;;;;24.64;37.92;100182.03;4164988;28;20281;-62
2022/08/11 07:40:26;;;;;;;3.80;2.50;;;;;;;24.57;38.00;100186.81;4162956;28;20228;-63
2022/08/11 07:42:34;;;;;;;3.92;2.45;;;;;;;24.76;38.00;100183.91;4167042;28;20720;-63
2022/08/11 07:54:19;;;;;;;2.97;2.38;;;;;;;25.53;37.76;100160.78;4155998;28;20604;-61
2022/08/11 07:56:22;;;;;;;2.92;2.40;;;;;;;25.64;36.91;100169.94;4166376;28;20224;-61
2022/08/11 08:18:15;;;;;;;4.32;2.38;;;;;;;26.53;35.37;100167.06;4168846;28;20297;-62
2022/08/11 08:20:36;;;;;;;4.05;2.47;;;;;;;26.44;36.07;100171.31;4168209;28;20274;-62
2022/08/11 08:22:38;;;;;;;2.80;2.20;;;;;;;26.59;35.89;100181.59;4165884;28;20304;-62
2022/08/11 08:24:45;;;;;;;4.38;2.40;;;;;;;26.77;35.68;100185.03;4164600;28;20821;-62
2022/08/11 08:27:00;;;;;;;3.33;2.63;;;;;;;26.52;35.74;100181.78;4164157;28;20239;-61
2022/08/11 08:31:25;;;;;;;10.02;2.80;;;;;;;26.84;35.67;100183.78;4164111;28;20790;-62
2022/08/11 08:33:30;;;;;;;2.67;2.45;;;;;;;26.97;35.18;100174.34;4166007;28;20615;-62
2022/08/11 08:35:34;;;;;;;4.15;2.42;;;;;;;26.91;35.47;100183.56;4160638;28;20236;-63
2022/08/11 08:37:56;;;;;;;5.90;2.22;;;;;;;27.10;35.36;100177.78;4164657;28;20293;-62
2022/08/11 08:39:58;;;;;;;3.92;2.53;;;;;;;26.92;35.14;100189.84;4162791;28;20281;-62
2022/08/11 08:42:03;;;;;;;4.18;2.10;;;;;;;27.29;34.92;100170.81;4161038;28;20724;-62
2022/08/11 08:44:10;;;;;;;6.20;2.80;;;;;;;27.04;34.84;100176.84;4163876;28;20902;-62
2022/08/11 08:46:38;;;;;;;3.30;2.13;;;;;;;27.60;34.47;100174.63;4156652;28;20271;-63
2022/08/11 08:48:42;;;;;;;3.60;2.47;;;;;;;27.29;34.80;100184.47;4164079;28;20553;-63
2022/08/11 08:53:28;;;;;;;5.13;2.78;;;;;;;27.48;34.34;100195.81;4162062;28;20228;-63
2022/08/11 08:55:30;;;;;;;4.22;2.40;;;;;;;27.56;34.18;100189.88;4161586;28;20224;-62
2022/08/11 08:57:35;;;;;;;4.22;2.75;;;;;;;27.84;34.45;100182.44;4159454;28;20290;-61
2022/08/11 08:59:43;;;;;;;6.60;2.40;;;;;;;27.76;34.46;100177.47;4167415;28;20260;-62
2022/08/11 09:02:01;;;;;;;3.30;2.40;;;;;;;28.05;33.95;100185.28;4166917;28;20235;-62
2022/08/11 09:04:10;;;;;;;8.60;2.60;;;;;;;27.42;34.68;100202.34;4158262;28;20290;-62
2022/08/11 09:06:17;;;;;;;5.43;2.38;;;;;;;27.98;33.96;100180.88;4166546;28;20301;-62
2022/08/11 09:08:21;;;;;;;4.90;2.42;;;;;;;27.82;34.65;100190.09;4151244;28;20228;-61
2022/08/11 09:10:24;;;;;;;6.53;2.78;;;;;;;27.49;34.73;100183.00;4162615;28;20290;-63
2022/08/11 09:12:28;;;;;;;4.45;2.35;;;;;;;27.49;34.72;100185.72;4164879;28;20741;-63
2022/08/11 09:15:02;;;;;;;5.38;2.50;;;;;;;27.76;34.28;100169.28;4165738;28;20264;-62
2022/08/11 09:17:04;;;;;;;9.63;3.10;;;;;;;27.67;34.44;100182.63;4161666;28;20319;-63
2022/08/11 09:19:07;;;;;;;5.05;2.45;;;;;;;27.84;33.81;100168.78;4166702;28;20232;-62
2022/08/11 09:21:10;;;;;;;4.05;2.28;;;;;;;28.23;33.69;100170.38;4162278;28;20939;-62
2022/08/11 09:28:20;;;;;;;4.47;2.53;;;;;;;27.90;33.97;100170.44;4166776;28;20228;-61
2022/08/11 09:30:27;;;;;;;6.85;2.50;;;;;;;28.26;33.41;100170.66;4163516;28;20232;-62
2022/08/11 09:32:30;;;;;;;5.55;2.30;;;;;;;28.53;33.61;100175.94;4167280;28;20216;-62
2022/08/11 09:34:35;;;;;;;4.95;2.17;;;;;;;28.77;33.10;100169.19;4158028;28;20259;-62
2022/08/11 09:41:21;;;;;;;5.05;2.47;;;;;;;28.64;33.03;100181.44;4163011;28;20315;-62
2022/08/11 09:45:50;;;;;;;5.90;2.63;;;;;;;28.82;33.26;100161.81;4162702;28;20717;-63
2022/08/11 09:47:53;;;;;;;3.92;2.72;;;;;;;28.99;33.04;100163.47;4167513;28;20248;-62
2022/08/11 09:50:01;;;;;;;2.63;2.20;;;;;;;29.71;32.51;100157.94;4167853;28;20258;-62
2022/08/11 09:52:08;;;;;;;3.28;2.45;;;;;;;29.01;32.40;100166.75;4165998;28;20231;-62
2022/08/11 09:54:11;;;;;;;4.60;2.40;;;;;;;28.95;32.69;100157.72;4165234;28;20232;-62
2022/08/11 09:58:43;;;;;;;3.70;2.40;;;;;;;28.71;32.87;100160.97;4178760;28;20232;-62
2022/08/11 10:00:50;;;;;;;4.65;2.80;;;;;;;29.05;32.57;100162.38;4185691;28;20282;-62
2022/08/11 10:02:54;;;;;;;3.28;2.40;;;;;;;29.22;32.51;100162.13;4178433;28;20241;-62
2022/08/11 10:07:00;;;;;;;3.50;2.45;;;;;;;29.35;32.23;100150.63;4185633;28;20227;-62
2022/08/11 10:07:19;;;;;;;5.72;2.30;;;;;;;29.31;31.75;100171.44;4184140;28;20292;-62
2022/08/11 10:09:23;;;;;;;4.57;2.05;;;;;;;29.88;31.73;100158.50;4182752;28;20289;-61
2022/08/11 10:11:27;;;;;;;4.53;2.45;;;;;;;29.37;31.51;100172.25;4183246;28;20228;-62
2022/08/11 10:13:33;;;;;;;3.55;2.45;;;;;;;29.90;31.01;100166.44;4183552;28;20231;-61
2022/08/11 10:15:57;;;;;;;2.30;2.10;;;;;;;29.33;31.14;100169.25;4182328;28;20781;-61
2022/08/11 10:20:49;;;;;;;2.40;1.95;;;;;;;29.69;30.96;100152.75;4178275;28;20803;-62
2022/08/11 10:27:34;;;;;;;5.28;2.35;;;;;;;29.60;30.72;100152.50;4162315;28;20304;-62
2022/08/11 10:35:01;;;;;;;3.70;2.22;;;;;;;29.54;31.14;100130.88;4165812;28;20246;-61
2022/08/11 10:37:05;;;;;;;4.63;2.20;;;;;;;29.74;30.68;100122.63;4163253;28;20267;-62
2022/08/11 10:39:20;;;;;;;2.75;2.22;;;;;;;29.63;30.73;100131.97;4164466;28;20263;-62
2022/08/11 10:44:07;;;;;;;4.32;2.33;;;;;;;29.88;29.75;100133.84;4165038;28;20323;-61
2022/08/11 10:48:36;;;;;;;3.25;2.00;;;;;;;29.44;30.54;100127.06;4162341;28;20229;-61
2022/08/11 11:00:08;;;;;;;6.03;2.22;;;;;;;29.59;30.81;100098.81;4166613;28;20232;-62
2022/08/11 11:03:28;;;;;;;5.50;2.50;;;;;;;29.36;30.90;100072.84;4149893;28;20995;-62
2022/08/11 11:05:31;;;;;;;4.95;2.30;;;;;;;29.42;31.06;100092.81;4139902;28;20274;-62
2022/08/11 11:07:42;;;;;;;3.95;2.22;;;;;;;29.43;30.79;100092.53;4139882;28;20259;-62
2022/08/11 11:09:53;;;;;;;4.72;2.28;;;;;;;30.49;30.28;100077.06;4141994;28;20274;-63
2022/08/11 11:19:19;;;;;;;4.45;2.10;;;;;;;29.77;30.32;100088.38;4152103;28;20315;-63
2022/08/11 11:21:23;;;;;;;3.28;2.20;;;;;;;30.10;30.26;100070.41;4155512;28;20302;-63
2022/08/11 11:24:01;;;;;;;5.15;2.20;;;;;;;30.53;29.77;100075.38;4164454;28;20294;-63
2022/08/11 11:26:09;;;;;;;2.17;1.98;;;;;;;30.34;29.67;100077.97;4157109;28;20257;-63
2022/08/11 11:28:23;;;;;;;5.65;2.10;;;;;;;30.44;29.01;100080.66;4156994;28;20318;-63
2022/08/11 11:30:34;;;;;;;2.97;1.90;;;;;;;30.42;29.69;100082.88;4159104;28;20674;-63
2022/08/11 11:33:06;;;;;;;3.65;1.98;;;;;;;30.26;29.49;100079.38;4151317;28;20228;-63
2022/08/11 11:35:14;;;;;;;2.97;2.10;;;;;;;30.11;29.43;100068.47;4162970;28;20232;-63
2022/08/11 11:37:17;;;;;;;3.30;1.95;;;;;;;29.88;29.62;100083.66;4159787;28;20240;-63
2022/08/11 11:39:30;;;;;;;5.22;2.20;;;;;;;30.32;28.96;100085.69;4158720;28;20287;-62
2022/08/11 11:41:32;;;;;;;6.53;1.98;;;;;;;30.66;29.14;100076.66;4151724;28;20770;-63
2022/08/11 11:43:35;;;;;;;4.80;1.75;;;;;;;30.28;28.89;100079.91;4159665;28;20362;-63
2022/08/11 11:45:40;;;;;;;3.03;2.15;;;;;;;30.93;28.37;100071.50;4159698;28;20569;-63
2022/08/11 11:47:43;;;;;;;4.05;1.90;;;;;;;31.11;28.77;100074.66;4158606;28;20236;-63
2022/08/11 11:49:48;;;;;;;2.42;1.77;;;;;;;30.95;28.81;100076.72;4156075;28;20285;-62
2022/08/11 11:51:51;;;;;;;3.05;1.88;;;;;;;30.47;28.52;100058.13;4157710;28;20232;-63
2022/08/11 11:53:53;;;;;;;2.90;1.92;;;;;;;30.68;28.17;100055.22;4155141;28;20677;-63
2022/08/11 11:55:56;;;;;;;1.85;1.70;;;;;;;30.18;28.73;100055.25;4154409;28;20233;-62
2022/08/11 12:02:44;;;;;;;3.35;2.17;;;;;;;30.89;28.62;100034.78;4158424;28;20247;-63
2022/08/11 12:04:47;;;;;;;9.80;2.10;;;;;;;31.20;28.50;100039.94;4160821;28;20236;-62
2022/08/11 12:06:51;;;;;;;4.18;2.00;;;;;;;30.30;28.52;100050.31;4156315;28;20240;-62
2022/08/11 12:08:56;;;;;;;4.93;1.92;;;;;;;29.94;28.88;100031.28;4157830;28;20228;-62
2022/08/11 12:13:41;;;;;;;3.45;1.75;;;;;;;30.66;28.12;100038.25;4155687;28;20799;-62
2022/08/11 12:15:45;;;;;;;3.60;1.95;;;;;;;30.75;27.92;100050.25;4143055;28;20233;-62
2022/08/11 12:18:08;;;;;;;5.65;1.95;;;;;;;30.15;28.38;100031.19;4152039;28;20224;-62
2022/08/11 12:20:10;;;;;;;4.22;2.08;;;;;;;30.04;27.88;100030.41;4146765;28;20230;-62
2022/08/11 12:27:21;;;;;;;2.97;2.13;;;;;;;30.66;27.63;100027.28;4141130;28;20240;-62
2022/08/11 12:29:27;;;;;;;3.53;2.05;;;;;;;30.99;28.01;100017.38;4150012;28;20604;-62
2022/08/11 12:31:29;;;;;;;3.40;2.25;;;;;;;30.50;28.32;100021.91;4149086;28;20264;-62
2022/08/11 12:33:30;;;;;;;1.98;1.70;;;;;;;31.05;27.84;100010.72;4139412;28;20313;-62
2022/08/11 12:35:36;;;;;;;3.50;2.00;;;;;;;30.57;27.84;100019.66;4151635;28;20290;-62
2022/08/11 12:37:48;;;;;;;2.95;1.60;;;;;;;31.07;27.79;100013.97;4150281;28;20240;-63
2022/08/11 12:45:29;;;;;;;3.08;1.90;;;;;;;30.69;27.49;100016.53;4131095;28;20243;-61
2022/08/11 12:51:55;;;;;;;3.38;1.75;;;;;;;30.95;27.57;100010.81;4150804;28;20232;-63
2022/08/11 12:52:44;;;;;;;3.67;2.10;;;;;;;31.11;27.04;100019.75;4125095;28;20233;-63
2022/08/11 12:55:06;;;;;;;2.13;1.63;;;;;;;31.48;26.87;100008.06;4145429;28;20328;-62
2022/08/11 13:05:00;;;;;;;3.65;1.70;;;;;;;31.23;26.72;99995.47;4149297;28;20237;-62
2022/08/11 13:07:03;;;;;;;3.58;1.90;;;;;;;31.37;26.50;100008.50;4147558;28;20320;-62
2022/08/11 13:09:06;;;;;;;2.13;1.77;;;;;;;31.72;26.42;100010.00;4145497;28;20245;-62
2022/08/11 13:13:51;;;;;;;3.25;1.83;;;;;;;31.59;26.75;99989.53;4145382;28;20228;-62
2022/08/11 13:15:59;;;;;;;2.50;1.70;;;;;;;31.38;26.88;99982.63;4142189;28;20228;-62
2022/08/11 13:18:01;;;;;;;3.10;2.00;;;;;;;31.71;26.66;99980.06;4150798;28;20237;-62
2022/08/11 13:20:05;;;;;;;3.08;1.73;;;;;;;31.15;26.94;99987.03;4143740;28;20221;-61
2022/08/11 13:22:07;;;;;;;3.60;1.98;;;;;;;31.41;26.71;99993.06;4150397;28;20487;-62
2022/08/11 13:24:08;;;;;;;1.73;1.63;;;;;;;31.62;26.69;99972.44;4145694;28;20323;-62
2022/08/11 13:26:10;;;;;;;2.13;1.60;;;;;;;31.39;26.83;99968.63;4140810;28;20517;-62
2022/08/11 13:28:12;;;;;;;3.58;1.80;;;;;;;31.51;27.07;99976.44;4147323;28;20325;-63
2022/08/11 13:32:44;;;;;;;2.88;1.90;;;;;;;31.57;26.83;99972.50;4143279;28;20280;-63
2022/08/11 13:34:46;;;;;;;4.15;1.80;;;;;;;31.81;26.19;99971.69;4142467;28;20233;-63
2022/08/11 13:36:51;;;;;;;1.85;1.55;;;;;;;31.89;26.04;99973.75;4148088;28;20237;-62
2022/08/11 13:38:57;;;;;;;2.78;1.90;;;;;;;31.72;26.37;99976.19;4146256;28;20229;-65
2022/08/11 13:40:59;;;;;;;3.80;1.73;;;;;;;31.20;26.13;99970.47;4144886;28;20236;-62
2022/08/11 13:43:01;;;;;;;4.00;1.85;;;;;;;31.84;26.02;99963.66;4144956;28;20237;-62
2022/08/11 13:45:06;;;;;;;2.47;1.67;;;;;;;31.30;26.33;99960.22;4149754;28;20929;-62
2022/08/11 13:47:12;;;;;;;6.57;1.95;;;;;;;32.03;26.13;99952.63;4145821;28;20650;-63
2022/08/11 13:49:16;;;;;;;2.78;1.65;;;;;;;31.66;26.16;99948.75;4141910;28;20236;-63
2022/08/11 13:51:35;;;;;;;3.08;1.60;;;;;;;31.58;26.36;99956.84;4149124;28;20295;-63
2022/08/11 13:53:37;;;;;;;1.65;1.45;;;;;;;32.12;26.53;99951.97;4147843;28;20295;-63
2022/08/11 13:55:41;;;;;;;2.30;1.75;;;;;;;32.03;25.97;99949.06;4145957;28;20288;-63
2022/08/11 13:57:53;;;;;;;2.10;1.65;;;;;;;31.64;26.68;99950.97;4143538;28;20237;-62
2022/08/11 14:00:15;;;;;;;3.03;1.83;;;;;;;31.17;26.29;99944.41;4147639;28;20272;-62
2022/08/11 14:02:29;;;;;;;2.78;1.80;;;;;;;31.62;26.42;99936.72;4142501;28;20748;-63
2022/08/11 14:04:48;;;;;;;2.83;2.30;;;;;;;31.80;26.13;99926.03;4142701;28;20261;-63
2022/08/11 14:06:53;;;;;;;4.00;2.10;;;;;;;31.71;26.68;99933.34;4145717;28;20319;-62
2022/08/11 14:08:55;;;;;;;2.95;1.60;;;;;;;31.09;26.81;99920.34;4145906;28;20745;-63
2022/08/11 14:13:43;;;;;;;2.72;1.70;;;;;;;32.04;26.45;99912.22;4140942;28;20356;-63
2022/08/11 14:15:51;;;;;;;3.38;2.15;;;;;;;31.66;26.33;99909.44;4145498;28;21032;-62
2022/08/11 14:18:04;;;;;;;4.55;2.50;;;;;;;31.79;26.62;99910.69;4150818;28;20722;-63
2022/08/11 14:20:08;;;;;;;2.85;1.63;;;;;;;32.21;26.29;99920.75;4145027;28;20275;-62
2022/08/11 14:22:32;;;;;;;6.75;1.77;;;;;;;31.62;26.24;99931.22;4147342;28;20237;-62
2022/08/11 14:24:37;;;;;;;5.57;1.70;;;;;;;31.71;26.05;99919.59;4146280;28;20286;-63